Flight Track Log - Related Links

Times and Time Zones

All times are in EDT time to prevent confusion due to time zone crossing. See the MMY64 flight status page for this flight to view local times or setup timezone preferences in your user account.

Time Position Orientation Groundspeed Altitude Reporting Facility
EDT Latitude Longitude Course Direction KTS MPH feet Rate Location/Type
Sun 07:04:01 PM 38.5000 -121.5667 270° West 78 90 1,800  Level Northern TRACON
Sun 07:05:01 PM 38.5167 -121.5833 322° Northwest 97 112 2,300 550 Climbing Northern TRACON
Sun 07:06:01 PM 38.5333 -121.6000 322° Northwest 87 100 2,900 550 Climbing Northern TRACON
Sun 07:07:01 PM 38.5500 -121.6167 322° Northwest 94 108 3,400 500 Climbing Northern TRACON
Sun 07:08:00 PM 38.6881 -121.5719 343° North  Level FlightAware
Sun 07:08:01 PM 38.5833 -121.6333 339° North 94 108 3,900  Level Northern TRACON
Sun 07:09:02 PM 38.6167 -121.6333 360° North 98 113 4,400 496 Climbing Northern TRACON
Sun 07:10:02 PM 38.6333 -121.6500 322° Northwest 101 116 4,900 500 Climbing Northern TRACON
Sun 07:11:02 PM 38.6667 -121.6500 360° North 100 115 5,400 500 Climbing Northern TRACON
Sun 07:12:02 PM 38.6833 -121.6667 322° Northwest 100 115 5,900 300 Climbing Northern TRACON
Sun 07:13:02 PM 38.7167 -121.6833 339° North 116 133 6,000 50 Climbing Northern TRACON
Sun 07:14:02 PM 38.7500 -121.6833 360° North 135 155 6,000  Level Northern TRACON
Sun 07:15:02 PM 38.7833 -121.7000 339° North 127 146 6,000  Level Northern TRACON
Sun 07:15:32 PM 38.7978 -121.7011 357° North 125 144 6,000  Level Oakland Center
Sun 07:16:34 PM 38.8300 -121.7136 343° North 122 140 6,000  Level Oakland Center
Sun 07:17:35 PM 38.8619 -121.7272 342° North 120 138 6,000  Level Oakland Center
Sun 07:18:37 PM 38.9006 -121.7417 344° North 122 140 6,000  Level Oakland Center
Sun 07:19:38 PM 38.9331 -121.7553 342° North 123 142 6,000  Level Oakland Center
Sun 07:20:40 PM 38.9650 -121.7681 343° North 120 138 6,000  Level Oakland Center
Sun 07:21:41 PM 38.9964 -121.7833 339° North 120 138 6,000  Level Oakland Center
Sun 07:22:43 PM 39.0283 -121.7986 340° North 122 140 6,000  Level Oakland Center
Sun 07:23:44 PM 39.0606 -121.8114 343° North 122 140 6,000  Level Oakland Center
Sun 07:24:46 PM 39.0931 -121.8231 344° North 122 140 6,000  Level Oakland Center
Sun 07:25:47 PM 39.1250 -121.8364 342° North 122 140 6,000  Level Oakland Center
Sun 07:26:49 PM 39.1561 -121.8472 345° North 118 136 6,000  Level Oakland Center
Sun 07:27:50 PM 39.1947 -121.8631 342° North 120 138 6,000  Level Oakland Center
Sun 07:28:52 PM 39.2264 -121.8778 340° North 122 140 6,000  Level Oakland Center
Sun 07:29:53 PM 39.2575 -121.8908 342° North 118 136 6,000  Level Oakland Center
Sun 07:30:55 PM 39.2897 -121.9056 341° North 121 139 6,000  Level Oakland Center
Sun 07:31:56 PM 39.3225 -121.9161 346° North 122 140 6,000  Level Oakland Center
Sun 07:32:58 PM 39.3550 -121.9275 345° North 121 139 6,000  Level Oakland Center
Sun 07:34:00 PM 39.3875 -121.9406 343° North 122 140 6,000  Level Oakland Center
Sun 07:35:01 PM 39.4194 -121.9556 340° North 122 140 6,000  Level Oakland Center
Sun 07:36:03 PM 39.4583 -121.9708 343° North 119 137 6,000  Level Oakland Center
Sun 07:37:04 PM 39.4906 -121.9856 341° North 122 140 6,000  Level Oakland Center
Sun 07:38:06 PM 39.5233 -121.9964 346° North 121 139 6,000  Level Oakland Center
Sun 07:39:07 PM 39.5556 -122.0056 348° North 119 137 6,000  Level Oakland Center
Sun 07:40:09 PM 39.5872 -122.0200 341° North 120 138 6,000  Level Oakland Center
Sun 07:41:11 PM 39.6194 -122.0331 343° North 121 139 6,000  Level Oakland Center
Sun 07:42:12 PM 39.6525 -122.0458 343° North 124 143 6,000  Level Oakland Center
Sun 07:43:14 PM 39.6919 -122.0625 342° North 123 142 6,000  Level Oakland Center
Sun 07:44:15 PM 39.7228 -122.0778 339° North 120 138 6,000  Level Oakland Center
Sun 07:45:17 PM 39.7550 -122.0908 343° North 121 139 6,000  Level Oakland Center
Sun 07:46:19 PM 39.7878 -122.1039 343° North 122 140 6,000  Level Oakland Center
Sun 07:47:20 PM 39.8208 -122.1169 343° North 123 142 6,000  Level Oakland Center
Sun 07:48:22 PM 39.8542 -122.1306 343° North 125 144 6,000  Level Oakland Center
Sun 07:49:23 PM 39.8875 -122.1433 344° North 125 144 6,000  Level Oakland Center
Sun 07:50:25 PM 39.9217 -122.1564 344° North 127 146 6,000  Level Oakland Center
Sun 07:51:26 PM 39.9628 -122.1719 344° North 129 148 6,000  Level Oakland Center
Sun 07:52:28 PM 39.9956 -122.1853 343° North 125 144 6,000  Level Oakland Center
Sun 07:53:30 PM 40.0281 -122.1992 342° North 123 142 6,000 -195 Level Oakland Center
Sun 07:54:31 PM 40.0603 -122.2153 339° North 124 143 5,600 -488 Descending Oakland Center
Sun 07:55:33 PM 40.0928 -122.2303 341° North 125 144 5,000 -537 Descending Oakland Center
Sun 07:56:34 PM 40.1253 -122.2394 348° North 124 143 4,500 -537 Descending Oakland Center
Sun 07:57:36 PM 40.1664 -122.2408 359° North 125 144 3,900 -242 Descending Oakland Center
Sun 07:58:38 PM 40.1972 -122.2469 351° North 120 138 4,000 49 Climbing Oakland Center
Sun 07:59:39 PM 40.2294 -122.2531 352° North 118 136 4,000  Level Oakland Center
Sun 08:00:41 PM 40.2625 -122.2550 357° North 118 136 4,000  Level Oakland Center
Sun 08:01:42 PM 40.2933 -122.2572 357° North 116 133 4,000  Level Oakland Center
Sun 08:02:44 PM 40.3261 -122.2603 356° North 116 133 4,000 -49 Level Oakland Center
Sun 08:03:45 PM 40.3642 -122.2656 354° North 116 133 3,900 -293 Descending Oakland Center
Sun 08:04:47 PM 40.3942 -122.2667 358° North 112 129 3,400 -585 Descending Oakland Center
Sun 08:05:48 PM 40.4258 -122.2675 359° North 112 129 2,700 -732 Descending Oakland Center
Sun 08:06:50 PM 40.4561 -122.2664 North 111 128 1,900 -581 Descending Oakland Center
Sun 08:07:52 PM 40.4847 -122.2706 354° North 107 123 1,500 -195 Descending Oakland Center
Sun 08:08:53 PM 40.5128 -122.2700 North 104 120 1,500 -146 Level Oakland Center
Sun 08:09:55 PM 40.5400 -122.2672 North 101 116 1,200 -146 Descending Oakland Center
Sun 08:10:56 PM 40.5431 -122.3025 277° West 99 114 1,200  Level Oakland Center

Login

Don't have an account? Register now (free) for customized features, flight alerts, and more!